Time;durP1;ratioP1;P1;durP2;ratioP2;P2;SDS_P1;SDS_P2;PMS_P1;PMS_P2;Temp;Humidity;BMP_temperature;BMP_pressure;BME280_temperature;BME280_humidity;BME280_pressure;Samples;Min_cycle;Max_cycle;Signal;HPM_P1;HPM_P2
2022/09/19 00:01:12;;;;;;;0.80;0.80;;;;;;;9.52;91.90;98097.02;1719142;81;21348;-72
2022/09/19 00:03:41;;;;;;;1.15;1.05;;;;;;;9.51;91.83;98095.37;1715396;81;21050;-74
2022/09/19 00:06:09;;;;;;;1.27;1.20;;;;;;;9.45;91.30;98112.09;1716598;81;21057;-73
2022/09/19 00:08:39;;;;;;;0.70;0.70;;;;;;;9.50;91.48;98098.22;1713626;81;21065;-71
2022/09/19 00:11:08;;;;;;;1.30;0.90;;;;;;;9.54;91.52;98096.31;1715360;82;21029;-72
2022/09/19 00:13:35;;;;;;;1.25;1.00;;;;;;;9.51;91.53;98111.28;1724578;83;21056;-74
2022/09/19 00:16:03;;;;;;;0.95;0.95;;;;;;;9.42;91.39;98109.31;1714524;83;21012;-73
2022/09/19 00:18:31;;;;;;;0.95;0.90;;;;;;;9.49;91.44;98104.04;1714445;81;21022;-72
2022/09/19 00:21:00;;;;;;;0.90;0.80;;;;;;;9.53;91.32;98106.59;1707041;81;21065;-73
2022/09/19 00:26:13;;;;;;;0.80;0.80;;;;;;;9.49;91.29;98098.73;1680757;83;21557;-72
2022/09/19 00:28:39;;;;;;;0.70;0.70;;;;;;;9.52;91.76;98110.28;1653132;85;21047;-73
2022/09/19 00:31:06;;;;;;;0.70;0.70;;;;;;;9.46;91.75;98113.70;1680720;84;21247;-72
2022/09/19 00:33:33;;;;;;;0.62;0.62;;;;;;;9.49;91.81;98110.67;1651968;85;21080;-75
2022/09/19 00:36:02;;;;;;;0.80;0.80;;;;;;;9.54;91.74;98112.22;1666320;84;21254;-73
2022/09/19 00:38:30;;;;;;;1.12;1.00;;;;;;;9.48;91.96;98110.34;1658066;84;21037;-71
2022/09/19 00:40:57;;;;;;;0.80;0.80;;;;;;;9.53;92.09;98111.09;1708317;82;21092;-71
2022/09/19 00:43:26;;;;;;;0.65;0.65;;;;;;;9.48;92.35;98116.16;1707394;84;21057;-73
2022/09/19 00:45:53;;;;;;;0.70;0.70;;;;;;;9.49;92.54;98109.86;1707945;82;21018;-73
2022/09/19 00:48:21;;;;;;;0.85;0.85;;;;;;;9.52;92.50;98127.51;1717316;81;21081;-71
2022/09/19 00:50:51;;;;;;;1.00;0.70;;;;;;;9.48;92.76;98120.95;1686643;83;21504;-70
2022/09/19 00:53:23;;;;;;;0.70;0.70;;;;;;;9.50;93.11;98124.21;1691643;83;21083;-74
2022/09/19 00:55:52;;;;;;;0.80;0.80;;;;;;;9.54;93.25;98119.33;1627301;85;21059;-73
2022/09/19 00:58:30;;;;;;;0.60;0.60;;;;;;;9.49;93.49;98121.78;1678174;83;21042;-73
2022/09/19 01:00:57;;;;;;;1.47;0.93;;;;;;;9.49;93.64;98123.11;1679494;83;21288;-74
2022/09/19 01:03:26;;;;;;;0.82;0.80;;;;;;;9.57;93.72;98126.37;1663098;83;21139;-74
2022/09/19 01:06:32;;;;;;;0.90;0.90;;;;;;;9.52;94.16;98133.30;1665630;83;21073;-73
2022/09/19 01:09:23;;;;;;;1.25;1.00;;;;;;;9.53;94.65;98128.31;1663545;83;21337;-73
2022/09/19 01:12:17;;;;;;;1.42;1.00;;;;;;;9.58;95.01;98146.58;1677965;85;21010;-74
2022/09/19 01:15:09;;;;;;;0.90;0.90;;;;;;;9.57;95.46;98129.55;1672051;83;21883;-73
2022/09/19 01:17:47;;;;;;;1.80;0.90;;;;;;;9.56;95.83;98135.85;1673476;83;21057;-73
2022/09/19 01:21:37;;;;;;;1.35;0.95;;;;;;;9.63;95.78;98134.84;1681664;83;21106;-73
2022/09/19 01:24:02;;;;;;;9.05;1.75;;;;;;;9.68;95.91;98121.00;1673917;83;21103;-71
2022/09/19 01:27:13;;;;;;;1.27;1.10;;;;;;;9.63;96.22;98141.99;1677705;84;21547;-72
2022/09/19 01:30:04;;;;;;;1.75;1.37;;;;;;;9.69;96.44;98133.74;1681658;85;21488;-71
2022/09/19 01:32:51;;;;;;;1.27;1.17;;;;;;;9.70;96.58;98132.73;1659825;85;21534;-70
2022/09/19 01:35:14;;;;;;;2.08;1.42;;;;;;;9.70;96.80;98128.77;1678623;83;21022;-73
2022/09/19 01:37:46;;;;;;;1.55;1.40;;;;;;;9.77;96.56;98130.41;1645391;87;21123;-71
2022/09/19 01:40:12;;;;;;;2.98;1.40;;;;;;;9.79;96.50;98131.50;1675389;84;21113;-71
2022/09/19 01:42:56;;;;;;;1.30;1.20;;;;;;;9.73;96.80;98119.06;1663059;83;21266;-70
2022/09/19 01:45:33;;;;;;;4.90;1.77;;;;;;;9.77;96.75;98129.08;1677343;83;21077;-71
2022/09/19 01:48:16;;;;;;;2.70;1.52;;;;;;;9.84;96.15;98139.69;1676373;83;22145;-70
2022/09/19 01:51:11;;;;;;;2.02;1.72;;;;;;;9.85;96.11;98142.66;1677986;85;21069;-72
2022/09/19 01:54:16;;;;;;;1.90;1.67;;;;;;;9.91;95.38;98155.10;1680338;83;21086;-73
2022/09/19 01:57:24;;;;;;;1.72;1.32;;;;;;;9.89;95.18;98147.02;1715386;81;21219;-72
2022/09/19 02:00:14;;;;;;;1.52;1.22;;;;;;;9.97;94.61;98147.66;1715379;80;21081;-70
2022/09/19 02:02:56;;;;;;;1.22;1.12;;;;;;;9.92;94.15;98154.06;1700074;83;21514;-71
2022/09/19 02:05:44;;;;;;;2.55;1.52;;;;;;;9.97;93.83;98161.44;1705651;82;21056;-72
2022/09/19 02:08:35;;;;;;;1.80;1.10;;;;;;;10.00;93.40;98175.09;1678887;82;21026;-73
2022/09/19 02:11:09;;;;;;;1.15;0.90;;;;;;;9.94;92.66;98159.98;1727109;80;21082;-73
2022/09/19 02:13:37;;;;;;;2.35;1.00;;;;;;;10.01;92.45;98176.73;1727939;81;21048;-72
2022/09/19 02:16:17;;;;;;;1.02;1.00;;;;;;;10.03;92.48;98176.02;1729981;81;21567;-72
2022/09/19 02:18:51;;;;;;;1.87;0.93;;;;;;;9.97;91.85;98183.47;1727530;80;28713;-70
2022/09/19 02:21:25;;;;;;;1.55;1.00;;;;;;;9.95;90.66;98182.86;1701501;83;21008;-72
2022/09/19 02:23:53;;;;;;;0.80;0.80;;;;;;;9.98;90.26;98193.56;1705598;83;21209;-70
2022/09/19 02:26:21;;;;;;;0.95;0.95;;;;;;;9.91;90.49;98181.63;1727468;82;21054;-72
2022/09/19 02:28:55;;;;;;;1.10;1.00;;;;;;;9.96;90.66;98189.78;1730253;81;21667;-72
2022/09/19 02:31:27;;;;;;;0.60;0.60;;;;;;;9.95;90.13;98197.45;1728020;80;21024;-73
2022/09/19 02:33:58;;;;;;;1.45;0.70;;;;;;;9.89;90.67;98198.26;1695767;83;21109;-73
2022/09/19 02:37:04;;;;;;;1.72;0.80;;;;;;;9.93;90.37;98198.64;1726236;80;21830;-73
2022/09/19 02:39:45;;;;;;;0.95;0.90;;;;;;;9.84;90.60;98202.02;1727656;80;20988;-72
2022/09/19 02:42:22;;;;;;;2.67;0.80;;;;;;;9.84;90.83;98200.69;1725784;80;21420;-71
2022/09/19 02:45:17;;;;;;;1.10;1.00;;;;;;;9.84;90.76;98205.98;1734510;80;21009;-73
2022/09/19 02:48:03;;;;;;;0.95;0.90;;;;;;;9.76;91.23;98207.51;1713837;80;21052;-73
2022/09/19 02:50:41;;;;;;;2.30;0.93;;;;;;;9.75;91.56;98215.14;1719037;83;21092;-73
2022/09/19 02:53:13;;;;;;;0.93;0.93;;;;;;;9.77;91.58;98219.25;1725367;80;21093;-72
2022/09/19 02:55:47;;;;;;;1.42;0.98;;;;;;;9.71;92.09;98227.17;1711732;81;21079;-71
2022/09/19 02:58:15;;;;;;;1.67;1.30;;;;;;;9.71;92.58;98237.77;1677299;82;21066;-71
2022/09/19 03:00:52;;;;;;;4.67;1.70;;;;;;;9.75;92.85;98229.20;1665916;84;21042;-69
2022/09/19 03:06:07;;;;;;;1.40;1.30;;;;;;;9.75;93.66;98237.69;1694714;83;21498;-73
2022/09/19 03:08:36;;;;;;;2.08;1.80;;;;;;;9.79;93.82;98245.06;1663022;84;21040;-72
2022/09/19 03:11:07;;;;;;;2.30;1.67;;;;;;;9.78;93.98;98266.47;1692314;83;21125;-72
2022/09/19 03:13:36;;;;;;;4.30;2.87;;;;;;;9.78;94.17;98245.25;1697207;82;21556;-73
2022/09/19 03:16:18;;;;;;;3.58;1.80;;;;;;;9.84;94.03;98264.34;1670478;83;21149;-73
2022/09/19 03:18:50;;;;;;;2.08;1.87;;;;;;;9.82;94.15;98257.91;1707254;83;21006;-73
2022/09/19 03:21:19;;;;;;;3.60;2.40;;;;;;;9.87;94.16;98262.63;1680831;84;21022;-70
2022/09/19 03:23:49;;;;;;;3.55;2.60;;;;;;;9.91;94.00;98262.53;1665064;83;21093;-72
2022/09/19 03:26:20;;;;;;;3.50;2.42;;;;;;;9.90;94.07;98271.50;1695708;83;21094;-72
2022/09/19 03:28:48;;;;;;;3.15;2.75;;;;;;;9.98;93.95;98269.98;1680809;84;21274;-73
2022/09/19 03:31:15;;;;;;;2.60;2.05;;;;;;;9.99;93.77;98305.31;1685669;83;21105;-72
2022/09/19 03:33:41;;;;;;;2.87;2.37;;;;;;;9.97;93.96;98280.30;1681955;83;21467;-73
2022/09/19 03:36:09;;;;;;;3.22;2.83;;;;;;;10.06;93.72;98298.68;1680547;84;21098;-72
2022/09/19 03:38:45;;;;;;;3.22;2.52;;;;;;;10.03;93.63;98295.92;1679579;84;21074;-71
2022/09/19 03:41:17;;;;;;;3.22;2.62;;;;;;;10.00;94.17;98295.80;1688302;83;21128;-72
2022/09/19 03:43:44;;;;;;;3.75;2.98;;;;;;;10.06;94.16;98303.98;1695796;83;21103;-71
2022/09/19 03:46:14;;;;;;;4.55;2.90;;;;;;;10.04;94.01;98311.66;1693402;82;21086;-73
2022/09/19 03:48:44;;;;;;;3.10;2.40;;;;;;;9.99;94.25;98306.63;1689371;83;21622;-72
2022/09/19 03:51:12;;;;;;;3.15;2.58;;;;;;;10.05;93.85;98340.33;1698566;83;21561;-73
2022/09/19 03:53:42;;;;;;;5.67;2.87;;;;;;;10.06;93.73;98326.02;1702168;83;21144;-71
2022/09/19 03:56:09;;;;;;;4.35;3.47;;;;;;;10.06;93.72;98338.48;1701272;82;21118;-71
2022/09/19 03:58:39;;;;;;;2.95;2.67;;;;;;;10.01;93.84;98345.20;1724291;80;21040;-72
2022/09/19 04:01:06;;;;;;;2.92;2.60;;;;;;;10.02;93.68;98336.24;1723301;81;21072;-74
2022/09/19 04:03:36;;;;;;;2.98;2.58;;;;;;;10.10;93.71;98351.17;1688801;83;21049;-71
2022/09/19 04:06:04;;;;;;;2.70;2.50;;;;;;;10.10;93.57;98346.34;1717719;80;22438;-74
2022/09/19 04:08:31;;;;;;;4.00;2.50;;;;;;;10.07;93.61;98352.88;1715526;80;21025;-71
2022/09/19 04:10:59;;;;;;;3.72;2.80;;;;;;;10.13;93.54;98358.72;1725167;80;21372;-72
2022/09/19 04:13:27;;;;;;;4.53;2.83;;;;;;;10.16;93.36;98369.43;1690234;84;21097;-71
2022/09/19 04:15:55;;;;;;;3.62;3.17;;;;;;;10.13;92.75;98367.19;1724818;80;21037;-70
2022/09/19 04:18:22;;;;;;;5.58;3.37;;;;;;;10.19;92.68;98359.75;1723038;80;21876;-72
2022/09/19 04:20:51;;;;;;;4.10;3.17;;;;;;;10.17;91.86;98377.20;1723953;80;20988;-71
2022/09/19 04:23:28;;;;;;;4.55;3.08;;;;;;;10.18;92.04;98383.34;1720690;80;21018;-72
2022/09/19 04:26:13;;;;;;;3.85;3.52;;;;;;;10.23;91.78;98378.23;1723529;80;20978;-71
2022/09/19 04:28:42;;;;;;;3.50;3.20;;;;;;;10.21;91.74;98378.95;1724277;80;21056;-69
2022/09/19 04:31:12;;;;;;;5.42;3.55;;;;;;;10.18;91.88;98385.48;1689623;83;21171;-69
2022/09/19 04:33:39;;;;;;;3.70;3.25;;;;;;;10.27;91.78;98394.07;1723919;80;21140;-72
2022/09/19 04:36:06;;;;;;;5.00;3.20;;;;;;;10.28;91.23;98395.73;1722924;81;21612;-71
2022/09/19 04:38:34;;;;;;;5.58;3.60;;;;;;;10.24;91.46;98401.94;1724664;80;21009;-70
2022/09/19 04:41:01;;;;;;;3.58;3.10;;;;;;;10.32;91.15;98405.47;1690157;82;21584;-70
2022/09/19 04:43:29;;;;;;;5.05;3.92;;;;;;;10.36;90.87;98402.20;1721216;82;21239;-71
2022/09/19 04:46:07;;;;;;;6.83;2.98;;;;;;;10.32;90.91;98406.28;1703903;80;21071;-72
2022/09/19 04:48:48;;;;;;;3.12;2.83;;;;;;;10.32;90.36;98412.11;1722558;80;21004;-71
2022/09/19 04:54:23;;;;;;;3.25;2.85;;;;;;;10.42;90.14;98417.34;1838051;75;28713;-71
2022/09/19 04:56:50;;;;;;;3.87;3.37;;;;;;;10.36;90.55;98422.64;1841104;77;21009;-71
2022/09/19 04:59:16;;;;;;;3.60;3.30;;;;;;;10.43;90.08;98419.50;1824034;77;21738;-71
2022/09/19 05:01:44;;;;;;;4.72;3.50;;;;;;;10.41;90.17;98421.02;1833471;76;21437;-73
2022/09/19 05:04:11;;;;;;;3.75;3.33;;;;;;;10.37;90.03;98431.73;1829123;77;20934;-73
2022/09/19 05:06:37;;;;;;;4.72;4.03;;;;;;;10.43;90.06;98430.94;1837510;77;21534;-72
2022/09/19 05:09:06;;;;;;;4.35;3.40;;;;;;;10.43;89.99;98435.44;1829610;77;20918;-73
2022/09/19 05:11:40;;;;;;;4.00;3.60;;;;;;;10.39;90.57;98444.78;1829616;77;21516;-72
2022/09/19 05:14:03;;;;;;;4.08;3.70;;;;;;;10.45;90.15;98456.45;1832856;77;20945;-72
2022/09/19 05:16:33;;;;;;;3.55;3.22;;;;;;;10.42;90.03;98447.05;1841127;77;21517;-73
2022/09/19 05:19:02;;;;;;;3.72;3.25;;;;;;;10.37;90.54;98466.25;1806335;77;21032;-71
2022/09/19 05:21:29;;;;;;;4.50;3.60;;;;;;;10.43;90.14;98468.10;1836938;77;21080;-74
2022/09/19 05:24:00;;;;;;;4.15;3.25;;;;;;;10.45;89.99;98467.07;1846470;77;21141;-77
2022/09/19 05:26:27;;;;;;;4.15;3.40;;;;;;;10.38;90.40;98478.48;1839354;77;20989;-76
2022/09/19 05:28:55;;;;;;;4.80;2.83;;;;;;;10.41;90.21;98478.10;1813105;77;21082;-75
2022/09/19 05:31:25;;;;;;;5.42;3.55;;;;;;;10.45;90.05;98486.50;1826225;77;21080;-76
2022/09/19 05:34:00;;;;;;;4.90;3.45;;;;;;;10.45;89.91;98502.91;1824293;78;20998;-75
2022/09/19 05:36:28;;;;;;;3.30;3.00;;;;;;;10.38;90.37;98489.63;1819679;78;21135;-75
2022/09/19 05:39:14;;;;;;;4.58;2.98;;;;;;;10.41;90.70;98495.36;1735372;80;21679;-75
2022/09/19 05:42:01;;;;;;;6.12;3.60;;;;;;;10.49;90.29;98496.19;1767658;79;21003;-74
2022/09/19 05:44:29;;;;;;;3.80;3.50;;;;;;;10.43;90.53;98514.56;1789845;80;20978;-75
2022/09/19 05:47:00;;;;;;;4.45;3.83;;;;;;;10.48;90.38;98518.46;1761622;80;21100;-74
2022/09/19 05:49:27;;;;;;;4.05;3.52;;;;;;;10.50;90.26;98532.36;1789991;80;21202;-76
2022/09/19 05:51:55;;;;;;;4.30;3.90;;;;;;;10.46;90.39;98519.17;1778692;80;21069;-75
2022/09/19 05:54:23;;;;;;;8.00;3.98;;;;;;;10.51;90.11;98522.87;1772750;80;21062;-76
2022/09/19 05:57:08;;;;;;;5.60;4.25;;;;;;;10.47;90.18;98525.62;1749024;80;21043;-75
2022/09/19 05:59:34;;;;;;;5.33;3.95;;;;;;;10.50;90.64;98542.98;1758991;81;21043;-75
2022/09/19 06:02:01;;;;;;;6.60;4.20;;;;;;;10.58;90.04;98534.84;1758678;81;21297;-76
2022/09/19 06:04:29;;;;;;;5.28;3.80;;;;;;;10.59;90.36;98544.45;1750202;78;21039;-75
2022/09/19 06:06:57;;;;;;;4.08;3.67;;;;;;;10.60;90.31;98544.75;1747720;82;21010;-76
2022/09/19 06:09:25;;;;;;;6.12;4.45;;;;;;;10.70;90.15;98553.69;1729762;80;21057;-74
2022/09/19 06:11:55;;;;;;;4.97;3.87;;;;;;;10.69;89.36;98579.44;1777021;80;20994;-75
2022/09/19 06:14:23;;;;;;;5.40;4.20;;;;;;;10.70;89.37;98567.80;1747500;78;21109;-76
2022/09/19 06:16:52;;;;;;;5.25;4.35;;;;;;;10.78;89.19;98568.95;1747249;80;21030;-75
2022/09/19 06:19:37;;;;;;;6.67;3.87;;;;;;;10.78;89.32;98586.74;1723103;80;20998;-75
2022/09/19 06:22:08;;;;;;;3.85;3.45;;;;;;;10.82;89.41;98580.83;1746874;80;21032;-74
2022/09/19 06:24:36;;;;;;;5.53;4.03;;;;;;;10.93;88.96;98585.25;1747376;80;21050;-75
2022/09/19 06:27:05;;;;;;;5.08;4.42;;;;;;;10.94;88.71;98600.19;1747624;82;21245;-75
2022/09/19 06:29:31;;;;;;;6.00;3.47;;;;;;;10.89;88.41;98607.92;1748394;78;20986;-75
2022/09/19 06:32:09;;;;;;;3.98;3.58;;;;;;;10.94;88.29;98596.20;1705549;82;21047;-74
2022/09/19 06:34:38;;;;;;;4.10;3.67;;;;;;;11.06;88.16;98601.77;1747009;82;21065;-75
2022/09/19 06:37:04;;;;;;;3.58;3.25;;;;;;;11.05;87.60;98601.44;1747926;82;21034;-76
2022/09/19 06:39:31;;;;;;;4.45;3.20;;;;;;;11.11;87.57;98609.97;1759042;80;21632;-75
2022/09/19 06:42:16;;;;;;;4.83;3.47;;;;;;;11.21;86.92;98605.90;1758057;81;21028;-76
2022/09/19 06:44:53;;;;;;;4.78;3.30;;;;;;;11.17;86.33;98605.98;1743261;81;20997;-74
2022/09/19 06:47:22;;;;;;;3.58;2.60;;;;;;;11.24;86.09;98614.49;1765515;80;21063;-75
2022/09/19 06:49:52;;;;;;;3.37;3.08;;;;;;;11.34;85.90;98627.73;1767138;80;21066;-75
2022/09/19 06:52:27;;;;;;;3.72;3.40;;;;;;;11.37;85.61;98621.99;1747087;79;21277;-76
2022/09/19 06:54:54;;;;;;;3.83;2.60;;;;;;;11.40;85.71;98620.27;1775487;78;21025;-75
2022/09/19 06:57:23;;;;;;;3.65;2.90;;;;;;;11.55;85.29;98624.09;1772267;81;21042;-75
2022/09/19 06:59:50;;;;;;;4.22;3.30;;;;;;;11.66;83.11;98646.61;1789363;80;21020;-76
2022/09/19 07:02:16;;;;;;;3.02;2.72;;;;;;;11.67;84.06;98633.63;1778485;80;21062;-75
2022/09/19 07:04:43;;;;;;;3.37;2.98;;;;;;;11.78;84.19;98648.16;1758910;78;21941;-76
2022/09/19 07:07:15;;;;;;;4.65;2.80;;;;;;;11.90;83.04;98642.59;1747003;82;21617;-75
2022/09/19 07:09:54;;;;;;;5.50;3.08;;;;;;;11.84;82.42;98643.87;1762561;79;21568;-72
2022/09/19 07:12:23;;;;;;;3.27;2.52;;;;;;;11.77;82.97;98642.55;1752178;80;21093;-75
2022/09/19 07:14:52;;;;;;;3.95;2.20;;;;;;;11.80;82.61;98662.92;1747536;79;21244;-72
2022/09/19 07:17:20;;;;;;;3.10;2.80;;;;;;;11.81;82.01;98654.42;1752025;79;21108;-80
2022/09/19 07:19:48;;;;;;;3.02;2.47;;;;;;;11.75;83.27;98682.66;1766851;79;20993;-80
2022/09/19 07:22:23;;;;;;;2.80;2.42;;;;;;;11.69;82.53;98656.05;1701372;78;21050;-80
2022/09/19 07:24:58;;;;;;;3.42;2.62;;;;;;;11.80;82.97;98662.08;1747491;78;21058;-81
2022/09/19 07:27:30;;;;;;;2.70;2.50;;;;;;;11.87;82.07;98662.92;1761964;79;21064;-80
2022/09/19 07:29:57;;;;;;;3.05;2.75;;;;;;;11.88;81.78;98669.89;1766728;80;21110;-79
2022/09/19 07:32:23;;;;;;;3.90;2.62;;;;;;;11.85;81.62;98670.80;1746813;81;21362;-73
2022/09/19 07:34:50;;;;;;;4.17;2.77;;;;;;;11.95;81.64;98680.56;1768564;79;21563;-79
2022/09/19 07:37:18;;;;;;;3.30;3.00;;;;;;;12.03;80.96;98682.22;1760069;80;21163;-78
2022/09/19 07:39:46;;;;;;;3.50;3.00;;;;;;;12.03;80.98;98683.02;1768970;80;21310;-76
2022/09/19 07:42:20;;;;;;;4.12;2.60;;;;;;;12.03;81.08;98682.22;1765081;79;21822;-77
2022/09/19 07:45:08;;;;;;;3.10;2.62;;;;;;;12.12;80.60;98698.30;1671875;84;21103;-81
2022/09/19 07:47:48;;;;;;;4.00;3.00;;;;;;;12.10;79.81;98701.69;1668588;84;21069;-82
2022/09/19 07:50:22;;;;;;;3.70;3.00;;;;;;;12.01;80.62;98697.05;1715683;79;21038;-80
2022/09/19 07:53:07;;;;;;;3.75;2.70;;;;;;;11.91;81.33;98741.88;1790832;78;21004;-80
2022/09/19 07:55:35;;;;;;;3.45;2.75;;;;;;;11.87;81.71;98724.12;1748026;79;21076;-81
2022/09/19 07:58:03;;;;;;;4.20;3.45;;;;;;;11.81;82.22;98719.62;1776632;80;21013;-79
2022/09/19 08:00:36;;;;;;;3.05;2.75;;;;;;;11.69;82.53;98719.90;1759270;79;21087;-80
2022/09/19 08:03:09;;;;;;;4.95;3.00;;;;;;;11.63;82.95;98724.17;1770251;79;21085;-79
2022/09/19 08:05:40;;;;;;;3.60;3.00;;;;;;;11.72;82.87;98728.80;1773480;80;21052;-75
2022/09/19 08:08:09;;;;;;;7.53;3.50;;;;;;;11.69;82.30;98726.55;1763619;79;21079;-74
2022/09/19 08:10:39;;;;;;;3.85;3.10;;;;;;;11.62;82.90;98738.48;1783816;80;21071;-74
2022/09/19 08:13:07;;;;;;;3.70;2.90;;;;;;;11.65;82.66;98762.04;1744269;80;21071;-73
2022/09/19 08:15:35;;;;;;;5.05;3.40;;;;;;;11.67;82.17;98747.22;1763911;79;21031;-73
2022/09/19 08:18:13;;;;;;;3.92;3.58;;;;;;;11.67;82.78;98751.20;1776439;80;21591;-76
2022/09/19 08:20:40;;;;;;;3.77;3.05;;;;;;;11.70;82.51;98758.77;1787105;78;21109;-74
2022/09/19 08:23:30;;;;;;;5.65;3.75;;;;;;;11.82;81.51;98755.86;1780507;79;21069;-73
2022/09/19 08:25:58;;;;;;;3.55;3.25;;;;;;;11.81;81.16;98765.66;1712624;81;21017;-71
2022/09/19 08:28:25;;;;;;;5.80;3.67;;;;;;;11.75;81.26;98769.65;1721176;81;21089;-73
2022/09/19 08:31:00;;;;;;;5.95;3.37;;;;;;;11.71;81.03;98759.91;1710334;81;21038;-73
2022/09/19 08:33:26;;;;;;;5.90;3.42;;;;;;;11.75;80.04;98759.00;1719850;81;21128;-74
2022/09/19 08:35:53;;;;;;;4.95;4.17;;;;;;;11.73;80.11;98762.38;1720953;81;21073;-73
2022/09/19 08:38:24;;;;;;;4.58;3.10;;;;;;;11.68;80.00;98765.62;1721514;81;21050;-72
2022/09/19 08:41:05;;;;;;;4.03;3.10;;;;;;;11.73;80.50;98765.85;1712706;81;21105;-73
2022/09/19 08:43:41;;;;;;;4.15;3.42;;;;;;;11.86;80.13;98762.91;1710337;81;21112;-74
2022/09/19 08:46:33;;;;;;;4.35;3.33;;;;;;;11.91;79.84;98773.81;1715280;81;21313;-74
2022/09/19 08:49:20;;;;;;;6.28;3.45;;;;;;;11.93;80.10;98779.23;1717739;81;21073;-74
2022/09/19 08:52:07;;;;;;;5.47;3.77;;;;;;;12.00;79.23;98786.74;1706881;81;21038;-74
2022/09/19 08:54:42;;;;;;;6.65;4.00;;;;;;;12.26;78.91;98773.17;1671976;84;21137;-72
2022/09/19 08:57:16;;;;;;;5.97;3.45;;;;;;;12.55;78.99;98775.15;1682468;82;21063;-74
2022/09/19 08:59:43;;;;;;;6.50;3.60;;;;;;;12.88;78.06;98786.31;1664900;84;21116;-74
2022/09/19 09:02:31;;;;;;;5.58;3.42;;;;;;;13.14;75.83;98769.47;1680234;82;21097;-74
2022/09/19 09:05:02;;;;;;;3.98;3.58;;;;;;;13.31;74.63;98775.22;1700957;82;21053;-79
2022/09/19 09:07:58;;;;;;;6.05;3.65;;;;;;;13.45;73.68;98772.80;1665658;84;21077;-74
2022/09/19 09:10:50;;;;;;;7.33;3.72;;;;;;;13.43;73.40;98786.87;1677894;82;21077;-74
2022/09/19 09:13:35;;;;;;;8.10;4.87;;;;;;;13.30;72.99;98804.23;1665115;84;21195;-74
2022/09/19 09:16:25;;;;;;;5.92;4.50;;;;;;;13.13;73.76;98805.99;1717040;81;21018;-73
2022/09/19 09:19:16;;;;;;;4.75;4.20;;;;;;;13.01;73.57;98794.82;1724998;81;21041;-73
2022/09/19 09:22:01;;;;;;;4.00;3.30;;;;;;;12.91;73.43;98806.72;1726494;81;21073;-74
2022/09/19 09:24:41;;;;;;;3.85;3.50;;;;;;;12.89;73.02;98815.95;1733253;81;21088;-74
2022/09/19 09:27:28;;;;;;;6.08;3.47;;;;;;;12.95;73.09;98823.12;1743432;80;21147;-74
2022/09/19 09:30:00;;;;;;;4.78;3.87;;;;;;;12.86;73.36;98818.50;1704818;82;21030;-73
2022/09/19 09:32:33;;;;;;;5.33;4.17;;;;;;;12.79;72.91;98828.36;1691521;83;21093;-73
2022/09/19 09:35:12;;;;;;;6.90;3.77;;;;;;;12.75;73.74;98833.27;1704459;82;28229;-73
2022/09/19 09:37:43;;;;;;;4.22;3.30;;;;;;;12.71;73.94;98829.88;1717673;82;21046;-74
2022/09/19 09:41:44;;;;;;;;;;;;;;;12.81;73.67;98842.82;1719676;82;22242;-75
2022/09/19 09:43:02;;;;;;;6.28;3.35;;;;;;;12.95;72.90;98851.11;1711664;83;26676;-74
2022/09/19 09:45:45;;;;;;;6.50;3.77;;;;;;;12.93;72.65;98851.84;1715839;82;21308;-74
2022/09/19 09:48:33;;;;;;;8.93;4.20;;;;;;;12.92;73.07;98854.18;1706529;82;21046;-74
2022/09/19 09:51:32;;;;;;;6.03;3.33;;;;;;;12.92;73.44;98858.17;1711970;82;21093;-74
2022/09/19 09:57:33;;;;;;;5.05;2.92;;;;;;;13.06;72.74;98855.84;1708444;83;21522;-74
2022/09/19 10:05:58;;;;;;;4.25;3.52;;;;;;;13.95;70.21;98846.95;1673193;83;21077;-76
2022/09/19 10:08:47;;;;;;;5.95;3.60;;;;;;;14.28;69.00;98852.13;1715779;82;21210;-78
2022/09/19 10:11:23;;;;;;;5.20;3.37;;;;;;;14.53;68.58;98851.37;1709131;82;21082;-77
2022/09/19 10:13:59;;;;;;;4.92;3.35;;;;;;;14.70;67.77;98857.05;1686549;83;21053;-75
2022/09/19 10:16:24;;;;;;;6.50;3.22;;;;;;;14.69;66.81;98866.09;1699131;82;21042;-72
2022/09/19 10:18:56;;;;;;;5.03;3.22;;;;;;;14.64;66.93;98867.25;1709250;82;21148;-75
2022/09/19 10:21:24;;;;;;;4.17;3.12;;;;;;;14.53;66.79;98870.89;1706492;82;21850;-74
2022/09/19 10:23:53;;;;;;;5.10;3.42;;;;;;;14.57;67.63;98872.65;1716268;82;21030;-73
2022/09/19 10:26:27;;;;;;;3.30;3.00;;;;;;;14.54;65.04;98870.36;1717005;81;21077;-72
2022/09/19 10:28:59;;;;;;;7.45;3.12;;;;;;;14.52;65.36;98879.11;1720262;81;21014;-74
2022/09/19 10:31:38;;;;;;;5.03;3.42;;;;;;;14.47;65.14;98875.76;1706363;81;21041;-74
2022/09/19 10:34:27;;;;;;;;;;;;;;;14.61;65.38;98878.39;1712429;81;21145;-77
2022/09/19 10:36:55;;;;;;;5.53;2.70;;;;;;;14.90;65.26;98881.77;1711527;81;20191;-75
2022/09/19 10:39:23;;;;;;;3.85;3.25;;;;;;;15.16;63.95;98884.45;1652074;83;21545;-76
2022/09/19 10:41:50;;;;;;;5.05;3.08;;;;;;;15.38;63.52;98888.38;1710493;81;21113;-76
2022/09/19 10:44:21;;;;;;;4.62;2.80;;;;;;;15.53;62.40;98891.53;1715604;81;21049;-73
2022/09/19 10:46:55;;;;;;;6.05;3.02;;;;;;;15.57;62.06;98897.77;1688556;83;21205;-75
2022/09/19 10:49:39;;;;;;;3.60;2.87;;;;;;;15.64;62.07;98891.83;1721105;81;21001;-75
2022/09/19 10:52:07;;;;;;;3.95;3.17;;;;;;;15.99;62.54;98888.59;1706265;82;21049;-75
2022/09/19 10:54:41;;;;;;;4.12;3.22;;;;;;;16.65;62.20;98894.95;1713624;81;21597;-75
2022/09/19 10:58:03;;;;;;;7.37;3.17;;;;;;;17.32;61.21;98897.98;1738578;81;21047;-76
2022/09/19 11:00:31;;;;;;;5.05;3.27;;;;;;;17.86;58.34;98910.23;1690797;83;21496;-77
2022/09/19 11:03:07;;;;;;;5.72;2.98;;;;;;;18.06;55.48;98889.71;1707467;83;21175;-74
2022/09/19 11:05:36;;;;;;;7.25;3.02;;;;;;;18.35;54.82;98897.81;1717977;83;21041;-75
2022/09/19 11:08:03;;;;;;;3.72;2.40;;;;;;;18.81;52.63;98893.81;1722928;83;21533;-76
2022/09/19 11:10:38;;;;;;;4.45;2.98;;;;;;;19.18;50.97;98914.88;1694546;83;21002;-76
2022/09/19 11:13:20;;;;;;;3.47;2.58;;;;;;;19.15;50.34;98908.12;1709824;83;21310;-74
2022/09/19 11:16:16;;;;;;;3.87;2.77;;;;;;;18.83;50.42;98925.33;1710607;81;21144;-74
2022/09/19 11:19:05;;;;;;;3.83;2.40;;;;;;;18.73;51.13;98920.55;1705500;81;21049;-75
2022/09/19 11:21:52;;;;;;;4.83;2.87;;;;;;;19.08;50.93;98924.14;1708591;81;21020;-75
2022/09/19 11:24:36;;;;;;;5.17;2.60;;;;;;;19.29;49.96;98932.84;1687581;83;21093;-77
2022/09/19 11:27:24;;;;;;;4.20;2.55;;;;;;;19.15;49.46;98934.23;1723486;81;21315;-75
2022/09/19 11:30:17;;;;;;;3.92;2.83;;;;;;;18.60;49.42;98937.81;1720063;81;21097;-77
2022/09/19 11:33:18;;;;;;;2.72;2.50;;;;;;;17.92;50.97;98943.94;1724852;81;21155;-74
2022/09/19 11:36:07;;;;;;;5.37;2.65;;;;;;;17.49;52.76;98949.94;1699265;81;21526;-74
2022/09/19 11:39:04;;;;;;;3.65;2.60;;;;;;;17.13;52.34;98962.47;1703286;81;21038;-75
2022/09/19 11:41:59;;;;;;;6.97;3.12;;;;;;;16.76;53.18;98953.17;1664777;84;22209;-74
2022/09/19 11:44:49;;;;;;;6.25;2.85;;;;;;;16.38;54.43;98954.80;1704275;81;21109;-75
2022/09/19 11:47:45;;;;;;;3.67;2.40;;;;;;;15.97;55.35;98966.50;1739519;79;21013;-73
2022/09/19 11:50:39;;;;;;;5.75;3.15;;;;;;;15.60;56.97;98971.77;1706815;81;21041;-75
2022/09/19 11:53:38;;;;;;;3.77;2.72;;;;;;;15.31;57.88;98978.59;1751703;80;21017;-75
2022/09/19 11:56:23;;;;;;;5.37;2.92;;;;;;;15.08;58.08;98971.14;1748835;80;21257;-74
2022/09/19 11:59:31;;;;;;;6.83;2.55;;;;;;;14.86;58.62;98966.14;1713984;81;21033;-76
2022/09/19 12:02:34;;;;;;;4.37;2.62;;;;;;;14.72;59.40;98976.09;1731571;80;21061;-76
2022/09/19 12:05:37;;;;;;;5.17;2.80;;;;;;;14.64;60.10;98971.00;1751277;80;21533;-74
2022/09/19 12:08:28;;;;;;;4.60;2.92;;;;;;;14.57;60.22;98974.73;1786293;77;21565;-76
2022/09/19 12:11:08;;;;;;;4.85;3.02;;;;;;;14.52;60.29;98965.45;1747897;79;21245;-75
2022/09/19 12:13:57;;;;;;;4.22;2.62;;;;;;;14.54;60.47;98974.10;1740936;81;21563;-74
2022/09/19 12:16:39;;;;;;;4.85;2.50;;;;;;;14.72;60.87;98973.42;1747750;79;21064;-76
2022/09/19 12:19:18;;;;;;;9.48;2.95;;;;;;;14.97;60.17;98975.34;1748895;79;21017;-75
2022/09/19 12:21:50;;;;;;;6.90;2.50;;;;;;;15.22;58.95;98965.17;1723273;81;22025;-75
2022/09/19 12:27:18;;;;;;;5.95;2.70;;;;;;;17.10;55.91;98967.78;1751204;79;21101;-80
2022/09/19 12:30:05;;;;;;;4.78;2.10;;;;;;;18.37;52.35;98975.52;1751656;79;21072;-75
2022/09/19 12:33:09;;;;;;;4.25;2.20;;;;;;;19.20;50.42;98963.41;1752496;79;20994;-75
2022/09/19 12:36:19;;;;;;;4.05;2.42;;;;;;;19.75;49.27;98971.83;1752488;79;21055;-75
2022/09/19 12:38:56;;;;;;;3.58;2.15;;;;;;;19.51;47.85;98979.23;1730726;81;21230;-76